sensor_id;sensor_type;location;lat;lon;timestamp;noise_LAeq;noise_LA_min;noise_LA_max;noise_LA01;noise_LA95
49568;Laerm;35474;51.032;6.998;2023-07-20T00:00:34;49.85;40.13;62.67;;
49568;Laerm;35474;51.032;6.998;2023-07-20T00:03:14;44.27;40.43;61.95;;
49568;Laerm;35474;51.032;6.998;2023-07-20T00:05:46;54.35;39.21;68.32;;
49568;Laerm;35474;51.032;6.998;2023-07-20T00:08:12;47.78;39.34;67.73;;
49568;Laerm;35474;51.032;6.998;2023-07-20T00:10:40;50.61;41.68;66.25;;
49568;Laerm;35474;51.032;6.998;2023-07-20T00:13:07;53.52;39.92;69.32;;
49568;Laerm;35474;51.032;6.998;2023-07-20T00:15:34;54.94;39.21;79.08;;
49568;Laerm;35474;51.032;6.998;2023-07-20T00:18:00;51.37;39.34;66.80;;
49568;Laerm;35474;51.032;6.998;2023-07-20T00:20:27;51.67;39.70;70.50;;
49568;Laerm;35474;51.032;6.998;2023-07-20T00:22:54;53.10;39.34;67.75;;
49568;Laerm;35474;51.032;6.998;2023-07-20T00:25:21;44.00;40.71;60.39;;
49568;Laerm;35474;51.032;6.998;2023-07-20T00:27:48;48.65;40.43;62.92;;
49568;Laerm;35474;51.032;6.998;2023-07-20T00:30:15;50.95;40.62;65.99;;
49568;Laerm;35474;51.032;6.998;2023-07-20T00:32:42;48.12;39.58;73.91;;
49568;Laerm;35474;51.032;6.998;2023-07-20T00:35:09;49.05;39.46;64.15;;
49568;Laerm;35474;51.032;6.998;2023-07-20T00:37:38;45.61;39.58;68.44;;
49568;Laerm;35474;51.032;6.998;2023-07-20T00:40:05;43.82;40.62;54.43;;
49568;Laerm;35474;51.032;6.998;2023-07-20T00:42:33;44.92;40.89;70.80;;
49568;Laerm;35474;51.032;6.998;2023-07-20T00:45:00;43.57;40.98;45.04;;
49568;Laerm;35474;51.032;6.998;2023-07-20T00:47:27;43.70;40.33;54.89;;
49568;Laerm;35474;51.032;6.998;2023-07-20T00:49:54;50.30;40.33;63.18;;
49568;Laerm;35474;51.032;6.998;2023-07-20T00:52:23;45.07;39.70;68.11;;
49568;Laerm;35474;51.032;6.998;2023-07-20T00:54:50;51.66;40.03;75.05;;
49568;Laerm;35474;51.032;6.998;2023-07-20T00:57:18;54.53;40.33;69.92;;
49568;Laerm;35474;51.032;6.998;2023-07-20T00:59:45;49.08;39.21;74.10;;
49568;Laerm;35474;51.032;6.998;2023-07-20T01:02:11;51.66;39.70;78.86;;
49568;Laerm;35474;51.032;6.998;2023-07-20T01:04:39;51.53;38.52;69.69;;
49568;Laerm;35474;51.032;6.998;2023-07-20T01:10:05;49.11;39.08;74.83;;
49568;Laerm;35474;51.032;6.998;2023-07-20T01:12:46;57.80;39.08;76.03;;
49568;Laerm;35474;51.032;6.998;2023-07-20T01:15:13;54.95;39.58;73.29;;
49568;Laerm;35474;51.032;6.998;2023-07-20T01:17:40;50.14;40.71;63.79;;
49568;Laerm;35474;51.032;6.998;2023-07-20T01:20:09;50.26;40.33;63.51;;
49568;Laerm;35474;51.032;6.998;2023-07-20T01:25:50;54.66;39.34;70.75;;
49568;Laerm;35474;51.032;6.998;2023-07-20T01:28:39;49.35;39.81;63.74;;
49568;Laerm;35474;51.032;6.998;2023-07-20T01:31:21;45.92;39.70;66.56;;
49568;Laerm;35474;51.032;6.998;2023-07-20T01:33:50;44.14;40.13;63.64;;
49568;Laerm;35474;51.032;6.998;2023-07-20T01:36:18;56.22;39.92;74.93;;
49568;Laerm;35474;51.032;6.998;2023-07-20T01:38:46;45.73;39.08;63.44;;
49568;Laerm;35474;51.032;6.998;2023-07-20T01:41:14;51.33;40.23;64.82;;
49568;Laerm;35474;51.032;6.998;2023-07-20T01:43:42;49.72;39.46;74.16;;
49568;Laerm;35474;51.032;6.998;2023-07-20T01:46:09;55.74;40.36;78.17;;
49568;Laerm;35474;51.032;6.998;2023-07-20T01:48:36;56.37;40.23;76.45;;
49568;Laerm;35474;51.032;6.998;2023-07-20T01:51:02;56.96;40.62;74.03;;
49568;Laerm;35474;51.032;6.998;2023-07-20T01:53:29;62.23;40.80;86.53;;
49568;Laerm;35474;51.032;6.998;2023-07-20T01:55:57;61.84;43.86;85.57;;
49568;Laerm;35474;51.032;6.998;2023-07-20T01:58:23;57.68;39.92;77.20;;
49568;Laerm;35474;51.032;6.998;2023-07-20T02:00:51;49.22;40.53;67.43;;
49568;Laerm;35474;51.032;6.998;2023-07-20T02:03:17;61.82;40.23;84.06;;
49568;Laerm;35474;51.032;6.998;2023-07-20T02:05:44;56.57;40.23;83.26;;
49568;Laerm;35474;51.032;6.998;2023-07-20T02:08:11;49.24;40.03;69.76;;
49568;Laerm;35474;51.032;6.998;2023-07-20T02:10:37;57.10;38.95;77.07;;
49568;Laerm;35474;51.032;6.998;2023-07-20T02:13:04;53.05;39.70;74.54;;
49568;Laerm;35474;51.032;6.998;2023-07-20T02:15:31;56.41;40.13;74.96;;
49568;Laerm;35474;51.032;6.998;2023-07-20T02:17:57;55.12;39.46;84.27;;
49568;Laerm;35474;51.032;6.998;2023-07-20T02:20:24;60.42;39.21;84.45;;
49568;Laerm;35474;51.032;6.998;2023-07-20T02:22:51;58.46;40.33;78.43;;
49568;Laerm;35474;51.032;6.998;2023-07-20T02:25:17;55.29;40.62;72.10;;
49568;Laerm;35474;51.032;6.998;2023-07-20T02:27:44;59.11;40.62;79.38;;
49568;Laerm;35474;51.032;6.998;2023-07-20T02:30:11;54.31;39.21;73.63;;
49568;Laerm;35474;51.032;6.998;2023-07-20T02:32:38;57.57;40.71;82.44;;
49568;Laerm;35474;51.032;6.998;2023-07-20T02:35:05;53.21;41.89;65.62;;
49568;Laerm;35474;51.032;6.998;2023-07-20T02:37:32;51.68;40.23;67.43;;
49568;Laerm;35474;51.032;6.998;2023-07-20T02:39:59;54.35;40.13;74.48;;
49568;Laerm;35474;51.032;6.998;2023-07-20T02:42:27;58.47;40.43;69.80;;
49568;Laerm;35474;51.032;6.998;2023-07-20T02:44:54;52.65;40.03;65.31;;
49568;Laerm;35474;51.032;6.998;2023-07-20T02:47:20;52.60;39.34;70.52;;
49568;Laerm;35474;51.032;6.998;2023-07-20T02:49:47;55.20;41.06;69.35;;
49568;Laerm;35474;51.032;6.998;2023-07-20T02:52:14;51.06;41.30;65.33;;
49568;Laerm;35474;51.032;6.998;2023-07-20T02:54:40;59.11;40.43;79.59;;
49568;Laerm;35474;51.032;6.998;2023-07-20T02:57:07;60.11;41.26;80.20;;
49568;Laerm;35474;51.032;6.998;2023-07-20T02:59:34;59.93;42.16;77.77;;
49568;Laerm;35474;51.032;6.998;2023-07-20T03:02:01;57.75;41.61;71.71;;
49568;Laerm;35474;51.032;6.998;2023-07-20T03:04:27;57.78;41.14;77.90;;
49568;Laerm;35474;51.032;6.998;2023-07-20T03:06:54;57.79;40.98;70.59;;
49568;Laerm;35474;51.032;6.998;2023-07-20T03:09:21;61.69;41.14;80.45;;
49568;Laerm;35474;51.032;6.998;2023-07-20T03:11:49;57.25;41.46;74.03;;
49568;Laerm;35474;51.032;6.998;2023-07-20T03:14:16;59.32;43.39;72.68;;
49568;Laerm;35474;51.032;6.998;2023-07-20T03:16:43;56.44;41.30;70.13;;
49568;Laerm;35474;51.032;6.998;2023-07-20T03:19:10;62.08;42.82;82.89;;
49568;Laerm;35474;51.032;6.998;2023-07-20T03:21:37;60.42;42.22;77.73;;
49568;Laerm;35474;51.032;6.998;2023-07-20T03:24:08;64.11;43.34;86.52;;
49568;Laerm;35474;51.032;6.998;2023-07-20T03:26:35;59.39;42.41;70.99;;
49568;Laerm;35474;51.032;6.998;2023-07-20T03:29:03;59.80;42.09;73.88;;
49568;Laerm;35474;51.032;6.998;2023-07-20T03:31:30;61.95;41.82;78.62;;
49568;Laerm;35474;51.032;6.998;2023-07-20T03:33:57;61.20;43.90;69.05;;
49568;Laerm;35474;51.032;6.998;2023-07-20T03:36:24;57.23;42.59;67.69;;
49568;Laerm;35474;51.032;6.998;2023-07-20T03:38:50;61.48;43.90;81.58;;
49568;Laerm;35474;51.032;6.998;2023-07-20T03:41:17;61.07;43.44;81.64;;
49568;Laerm;35474;51.032;6.998;2023-07-20T03:43:46;61.33;43.77;78.52;;
49568;Laerm;35474;51.032;6.998;2023-07-20T03:46:12;62.00;44.54;70.17;;
49568;Laerm;35474;51.032;6.998;2023-07-20T03:48:39;60.36;41.55;73.61;;
49568;Laerm;35474;51.032;6.998;2023-07-20T03:51:06;62.55;42.16;74.32;;
49568;Laerm;35474;51.032;6.998;2023-07-20T03:53:33;63.06;43.49;87.31;;
49568;Laerm;35474;51.032;6.998;2023-07-20T03:55:59;60.94;42.88;73.97;;
49568;Laerm;35474;51.032;6.998;2023-07-20T03:58:26;60.07;43.39;73.43;;
49568;Laerm;35474;51.032;6.998;2023-07-20T04:00:52;62.19;43.54;82.16;;
49568;Laerm;35474;51.032;6.998;2023-07-20T04:03:19;61.17;43.63;75.43;;
49568;Laerm;35474;51.032;6.998;2023-07-20T04:05:46;61.92;44.11;74.95;;
49568;Laerm;35474;51.032;6.998;2023-07-20T04:08:13;60.86;43.90;76.77;;
49568;Laerm;35474;51.032;6.998;2023-07-20T04:10:43;59.92;44.03;78.02;;
49568;Laerm;35474;51.032;6.998;2023-07-20T04:13:10;63.21;43.99;81.74;;
49568;Laerm;35474;51.032;6.998;2023-07-20T04:15:37;62.90;44.90;72.13;;
49568;Laerm;35474;51.032;6.998;2023-07-20T04:18:03;63.82;46.64;86.38;;
49568;Laerm;35474;51.032;6.998;2023-07-20T04:20:30;61.64;45.30;74.26;;
49568;Laerm;35474;51.032;6.998;2023-07-20T04:22:57;65.15;43.94;83.09;;
49568;Laerm;35474;51.032;6.998;2023-07-20T04:25:24;63.92;44.65;86.69;;
49568;Laerm;35474;51.032;6.998;2023-07-20T04:27:50;63.01;46.73;78.90;;
49568;Laerm;35474;51.032;6.998;2023-07-20T04:30:18;64.69;43.34;84.13;;
49568;Laerm;35474;51.032;6.998;2023-07-20T04:32:49;67.27;44.31;93.71;;
49568;Laerm;35474;51.032;6.998;2023-07-20T04:35:52;62.15;43.44;75.30;;
49568;Laerm;35474;51.032;6.998;2023-07-20T04:38:19;62.30;44.07;70.99;;
49568;Laerm;35474;51.032;6.998;2023-07-20T04:40:48;64.88;44.35;82.97;;
49568;Laerm;35474;51.032;6.998;2023-07-20T04:43:16;65.17;45.33;83.24;;
49568;Laerm;35474;51.032;6.998;2023-07-20T04:45:43;63.44;45.30;72.60;;
49568;Laerm;35474;51.032;6.998;2023-07-20T04:48:11;63.52;43.90;71.27;;
49568;Laerm;35474;51.032;6.998;2023-07-20T04:50:40;65.36;43.68;77.21;;
49568;Laerm;35474;51.032;6.998;2023-07-20T04:53:08;63.08;50.09;78.86;;
49568;Laerm;35474;51.032;6.998;2023-07-20T04:55:37;63.72;42.41;72.85;;
49568;Laerm;35474;51.032;6.998;2023-07-20T04:58:04;62.56;44.11;71.35;;
49568;Laerm;35474;51.032;6.998;2023-07-20T05:00:32;63.71;48.07;73.17;;
49568;Laerm;35474;51.032;6.998;2023-07-20T05:02:59;63.16;45.51;78.19;;
49568;Laerm;35474;51.032;6.998;2023-07-20T05:05:26;65.45;44.69;80.35;;
49568;Laerm;35474;51.032;6.998;2023-07-20T05:07:52;62.26;42.93;73.10;;
49568;Laerm;35474;51.032;6.998;2023-07-20T05:10:19;63.78;45.66;71.99;;
49568;Laerm;35474;51.032;6.998;2023-07-20T05:12:46;64.20;49.07;73.85;;
49568;Laerm;35474;51.032;6.998;2023-07-20T05:15:12;64.85;43.19;83.44;;
49568;Laerm;35474;51.032;6.998;2023-07-20T05:17:39;66.35;50.31;76.12;;
49568;Laerm;35474;51.032;6.998;2023-07-20T05:20:06;63.51;45.27;72.20;;
49568;Laerm;35474;51.032;6.998;2023-07-20T05:22:33;65.29;45.17;76.09;;
49568;Laerm;35474;51.032;6.998;2023-07-20T05:25:00;63.21;45.11;78.61;;
49568;Laerm;35474;51.032;6.998;2023-07-20T05:27:26;65.09;45.48;75.55;;
49568;Laerm;35474;51.032;6.998;2023-07-20T05:29:53;61.74;49.29;68.15;;
49568;Laerm;35474;51.032;6.998;2023-07-20T05:32:19;64.10;51.55;72.67;;
49568;Laerm;35474;51.032;6.998;2023-07-20T05:34:46;67.05;45.48;83.97;;
49568;Laerm;35474;51.032;6.998;2023-07-20T05:37:12;66.67;46.28;86.21;;
49568;Laerm;35474;51.032;6.998;2023-07-20T05:39:40;64.80;51.51;80.14;;
49568;Laerm;35474;51.032;6.998;2023-07-20T05:42:07;68.86;48.76;87.31;;
49568;Laerm;35474;51.032;6.998;2023-07-20T05:44:34;65.40;47.16;76.07;;
49568;Laerm;35474;51.032;6.998;2023-07-20T05:47:00;63.84;49.75;82.78;;
49568;Laerm;35474;51.032;6.998;2023-07-20T05:49:29;67.98;46.80;87.86;;
49568;Laerm;35474;51.032;6.998;2023-07-20T05:51:56;72.05;51.72;92.55;;
49568;Laerm;35474;51.032;6.998;2023-07-20T05:54:26;65.42;46.23;84.04;;
49568;Laerm;35474;51.032;6.998;2023-07-20T05:56:53;67.41;49.28;91.14;;
49568;Laerm;35474;51.032;6.998;2023-07-20T05:59:19;69.78;46.89;87.33;;
49568;Laerm;35474;51.032;6.998;2023-07-20T06:01:46;67.72;48.74;87.98;;
49568;Laerm;35474;51.032;6.998;2023-07-20T06:04:15;64.21;45.23;85.50;;
49568;Laerm;35474;51.032;6.998;2023-07-20T06:06:42;65.92;45.89;87.05;;
49568;Laerm;35474;51.032;6.998;2023-07-20T06:09:08;63.62;46.25;72.37;;
49568;Laerm;35474;51.032;6.998;2023-07-20T06:11:38;68.71;44.03;90.51;;
49568;Laerm;35474;51.032;6.998;2023-07-20T06:14:05;66.70;50.25;85.37;;
49568;Laerm;35474;51.032;6.998;2023-07-20T06:16:32;65.72;43.72;89.61;;
49568;Laerm;35474;51.032;6.998;2023-07-20T06:19:02;62.79;46.84;80.04;;
49568;Laerm;35474;51.032;6.998;2023-07-20T06:21:28;63.07;44.83;74.32;;
49568;Laerm;35474;51.032;6.998;2023-07-20T06:23:55;64.10;46.89;72.88;;
49568;Laerm;35474;51.032;6.998;2023-07-20T06:26:22;64.86;48.29;76.31;;
49568;Laerm;35474;51.032;6.998;2023-07-20T06:28:49;62.70;45.57;70.04;;
49568;Laerm;35474;51.032;6.998;2023-07-20T06:32:35;63.23;52.94;69.54;;
49568;Laerm;35474;51.032;6.998;2023-07-20T06:35:02;65.08;45.51;81.99;;
49568;Laerm;35474;51.032;6.998;2023-07-20T06:37:28;65.70;44.27;86.26;;
49568;Laerm;35474;51.032;6.998;2023-07-20T06:39:55;62.74;46.87;73.00;;
49568;Laerm;35474;51.032;6.998;2023-07-20T06:42:24;62.57;43.24;77.70;;
49568;Laerm;35474;51.032;6.998;2023-07-20T06:45:11;63.91;44.47;74.59;;
49568;Laerm;35474;51.032;6.998;2023-07-20T06:47:38;61.98;43.09;71.15;;
49568;Laerm;35474;51.032;6.998;2023-07-20T06:50:09;63.30;43.77;70.12;;
49568;Laerm;35474;51.032;6.998;2023-07-20T06:52:42;64.44;44.80;71.78;;
49568;Laerm;35474;51.032;6.998;2023-07-20T06:55:09;63.02;45.11;74.17;;
49568;Laerm;35474;51.032;6.998;2023-07-20T06:57:36;63.91;42.29;73.49;;
49568;Laerm;35474;51.032;6.998;2023-07-20T07:00:02;64.42;44.87;84.98;;
49568;Laerm;35474;51.032;6.998;2023-07-20T07:02:30;64.76;50.76;78.42;;
49568;Laerm;35474;51.032;6.998;2023-07-20T07:04:57;65.43;52.52;81.05;;
49568;Laerm;35474;51.032;6.998;2023-07-20T07:07:44;64.21;49.82;80.45;;
49568;Laerm;35474;51.032;6.998;2023-07-20T07:10:10;65.23;50.20;76.75;;
49568;Laerm;35474;51.032;6.998;2023-07-20T07:12:37;65.17;49.83;77.94;;
49568;Laerm;35474;51.032;6.998;2023-07-20T07:15:04;63.29;49.47;70.21;;
49568;Laerm;35474;51.032;6.998;2023-07-20T07:17:32;64.60;46.13;74.46;;
49568;Laerm;35474;51.032;6.998;2023-07-20T07:20:00;63.74;46.95;75.83;;
49568;Laerm;35474;51.032;6.998;2023-07-20T07:22:27;62.88;48.66;75.76;;
49568;Laerm;35474;51.032;6.998;2023-07-20T07:24:54;63.85;45.20;72.18;;
49568;Laerm;35474;51.032;6.998;2023-07-20T07:27:21;64.66;44.73;71.74;;
49568;Laerm;35474;51.032;6.998;2023-07-20T07:29:47;63.42;43.99;73.82;;
49568;Laerm;35474;51.032;6.998;2023-07-20T07:32:15;64.63;47.04;76.09;;
49568;Laerm;35474;51.032;6.998;2023-07-20T07:34:43;62.78;42.29;78.11;;
49568;Laerm;35474;51.032;6.998;2023-07-20T07:37:13;65.30;44.16;83.99;;
49568;Laerm;35474;51.032;6.998;2023-07-20T07:39:39;64.28;45.89;82.25;;
49568;Laerm;35474;51.032;6.998;2023-07-20T07:42:06;62.47;47.10;76.53;;
49568;Laerm;35474;51.032;6.998;2023-07-20T07:44:33;65.23;49.18;80.92;;
49568;Laerm;35474;51.032;6.998;2023-07-20T07:46:59;64.87;47.02;88.13;;
49568;Laerm;35474;51.032;6.998;2023-07-20T07:49:26;66.38;55.15;78.15;;
49568;Laerm;35474;51.032;6.998;2023-07-20T07:51:54;65.70;54.71;87.44;;
49568;Laerm;35474;51.032;6.998;2023-07-20T07:54:20;64.41;49.77;78.71;;
49568;Laerm;35474;51.032;6.998;2023-07-20T07:56:47;64.49;52.30;76.41;;
49568;Laerm;35474;51.032;6.998;2023-07-20T07:59:14;65.03;47.61;77.97;;
49568;Laerm;35474;51.032;6.998;2023-07-20T08:01:40;63.39;47.19;76.54;;
49568;Laerm;35474;51.032;6.998;2023-07-20T08:04:07;65.27;51.37;79.71;;
49568;Laerm;35474;51.032;6.998;2023-07-20T08:06:34;62.82;51.91;79.24;;
49568;Laerm;35474;51.032;6.998;2023-07-20T08:09:01;61.95;44.90;77.86;;
49568;Laerm;35474;51.032;6.998;2023-07-20T08:11:28;63.16;45.89;75.91;;
49568;Laerm;35474;51.032;6.998;2023-07-20T08:13:57;63.65;52.79;77.57;;
49568;Laerm;35474;51.032;6.998;2023-07-20T08:16:23;60.24;42.65;70.52;;
49568;Laerm;35474;51.032;6.998;2023-07-20T08:18:51;64.18;49.74;74.03;;
49568;Laerm;35474;51.032;6.998;2023-07-20T08:21:18;63.56;49.62;74.49;;
49568;Laerm;35474;51.032;6.998;2023-07-20T08:23:45;63.86;43.86;74.19;;
49568;Laerm;35474;51.032;6.998;2023-07-20T08:26:12;64.33;49.87;70.96;;
49568;Laerm;35474;51.032;6.998;2023-07-20T08:28:39;64.79;53.52;81.97;;
49568;Laerm;35474;51.032;6.998;2023-07-20T08:31:05;64.06;50.10;78.61;;
49568;Laerm;35474;51.032;6.998;2023-07-20T08:33:33;64.01;50.62;72.58;;
49568;Laerm;35474;51.032;6.998;2023-07-20T08:36:01;63.82;47.88;74.16;;
49568;Laerm;35474;51.032;6.998;2023-07-20T08:38:28;63.80;44.39;72.52;;
49568;Laerm;35474;51.032;6.998;2023-07-20T08:40:54;63.94;44.47;77.63;;
49568;Laerm;35474;51.032;6.998;2023-07-20T08:43:23;62.85;50.19;69.63;;
49568;Laerm;35474;51.032;6.998;2023-07-20T08:45:54;64.67;51.18;72.37;;
49568;Laerm;35474;51.032;6.998;2023-07-20T08:48:22;62.14;42.76;73.83;;
49568;Laerm;35474;51.032;6.998;2023-07-20T08:50:51;62.80;45.27;75.35;;
49568;Laerm;35474;51.032;6.998;2023-07-20T08:53:20;65.38;47.81;72.34;;
49568;Laerm;35474;51.032;6.998;2023-07-20T08:55:50;64.32;49.10;72.02;;
49568;Laerm;35474;51.032;6.998;2023-07-20T08:58:17;63.83;47.24;75.99;;
49568;Laerm;35474;51.032;6.998;2023-07-20T09:00:44;64.94;48.95;77.25;;
49568;Laerm;35474;51.032;6.998;2023-07-20T09:03:12;65.47;44.83;75.55;;
49568;Laerm;35474;51.032;6.998;2023-07-20T09:05:41;63.69;43.94;83.23;;
49568;Laerm;35474;51.032;6.998;2023-07-20T09:08:07;65.64;46.94;84.44;;
49568;Laerm;35474;51.032;6.998;2023-07-20T09:10:34;67.18;47.04;82.95;;
49568;Laerm;35474;51.032;6.998;2023-07-20T09:13:01;63.77;44.69;82.29;;
49568;Laerm;35474;51.032;6.998;2023-07-20T09:15:29;66.55;48.88;83.20;;
49568;Laerm;35474;51.032;6.998;2023-07-20T09:17:56;64.33;46.10;79.17;;
49568;Laerm;35474;51.032;6.998;2023-07-20T09:20:23;67.35;48.94;87.58;;
49568;Laerm;35474;51.032;6.998;2023-07-20T09:22:51;66.25;44.43;82.77;;
49568;Laerm;35474;51.032;6.998;2023-07-20T09:25:19;64.08;43.49;80.83;;
49568;Laerm;35474;51.032;6.998;2023-07-20T09:27:49;64.56;47.20;81.19;;
49568;Laerm;35474;51.032;6.998;2023-07-20T09:30:18;74.01;51.87;98.36;;
49568;Laerm;35474;51.032;6.998;2023-07-20T09:32:49;64.47;52.19;75.58;;
49568;Laerm;35474;51.032;6.998;2023-07-20T09:35:21;68.62;44.62;85.55;;
49568;Laerm;35474;51.032;6.998;2023-07-20T09:37:56;66.32;52.30;84.92;;
49568;Laerm;35474;51.032;6.998;2023-07-20T09:40:27;65.21;47.68;79.03;;
49568;Laerm;35474;51.032;6.998;2023-07-20T09:43:15;61.51;41.14;70.82;;
49568;Laerm;35474;51.032;6.998;2023-07-20T09:45:45;64.99;51.93;74.23;;
49568;Laerm;35474;51.032;6.998;2023-07-20T09:48:14;65.39;51.09;75.45;;
49568;Laerm;35474;51.032;6.998;2023-07-20T09:50:50;65.32;45.99;71.35;;
49568;Laerm;35474;51.032;6.998;2023-07-20T09:53:18;64.17;47.30;74.10;;
49568;Laerm;35474;51.032;6.998;2023-07-20T09:55:47;64.66;46.33;79.52;;
49568;Laerm;35474;51.032;6.998;2023-07-20T09:58:14;62.42;48.74;69.48;;
49568;Laerm;35474;51.032;6.998;2023-07-20T10:00:43;63.41;45.20;77.68;;
49568;Laerm;35474;51.032;6.998;2023-07-20T10:03:18;62.12;45.36;69.24;;
49568;Laerm;35474;51.032;6.998;2023-07-20T10:06:15;65.41;52.96;83.15;;
49568;Laerm;35474;51.032;6.998;2023-07-20T10:08:41;63.46;45.33;70.62;;
49568;Laerm;35474;51.032;6.998;2023-07-20T10:11:11;65.25;50.25;82.49;;
49568;Laerm;35474;51.032;6.998;2023-07-20T10:13:41;64.89;45.23;81.33;;
49568;Laerm;35474;51.032;6.998;2023-07-20T10:16:20;63.70;47.36;79.76;;
49568;Laerm;35474;51.032;6.998;2023-07-20T10:19:03;64.58;51.35;84.49;;
49568;Laerm;35474;51.032;6.998;2023-07-20T10:21:30;69.50;51.97;90.85;;
49568;Laerm;35474;51.032;6.998;2023-07-20T10:24:01;63.83;48.23;78.85;;
49568;Laerm;35474;51.032;6.998;2023-07-20T10:26:28;63.66;44.35;74.74;;
49568;Laerm;35474;51.032;6.998;2023-07-20T10:28:56;63.11;49.62;74.66;;
49568;Laerm;35474;51.032;6.998;2023-07-20T10:31:24;64.30;51.26;70.99;;
49568;Laerm;35474;51.032;6.998;2023-07-20T10:33:51;64.72;49.97;74.53;;
49568;Laerm;35474;51.032;6.998;2023-07-20T10:36:24;64.78;50.15;76.62;;
49568;Laerm;35474;51.032;6.998;2023-07-20T10:38:57;65.31;50.92;78.89;;
49568;Laerm;35474;51.032;6.998;2023-07-20T10:41:29;64.07;44.27;72.61;;
49568;Laerm;35474;51.032;6.998;2023-07-20T10:44:09;63.07;48.55;70.97;;
49568;Laerm;35474;51.032;6.998;2023-07-20T10:49:09;65.30;43.68;88.94;;
49568;Laerm;35474;51.032;6.998;2023-07-20T10:56:56;68.65;49.11;93.79;;
49568;Laerm;35474;51.032;6.998;2023-07-20T11:01:59;63.48;44.80;79.05;;
49568;Laerm;35474;51.032;6.998;2023-07-20T11:04:45;65.47;43.24;82.31;;
49568;Laerm;35474;51.032;6.998;2023-07-20T11:07:15;66.67;45.45;84.46;;
49568;Laerm;35474;51.032;6.998;2023-07-20T11:09:43;63.21;46.10;70.84;;
49568;Laerm;35474;51.032;6.998;2023-07-20T11:12:18;65.73;53.21;77.87;;
49568;Laerm;35474;51.032;6.998;2023-07-20T11:14:57;64.01;45.77;70.73;;
49568;Laerm;35474;51.032;6.998;2023-07-20T11:17:31;68.88;45.27;90.80;;
49568;Laerm;35474;51.032;6.998;2023-07-20T11:20:00;64.17;45.11;83.12;;
49568;Laerm;35474;51.032;6.998;2023-07-20T11:22:33;65.04;44.83;80.19;;
49568;Laerm;35474;51.032;6.998;2023-07-20T11:25:00;63.46;46.30;76.23;;
49568;Laerm;35474;51.032;6.998;2023-07-20T11:27:27;63.96;47.18;73.40;;
49568;Laerm;35474;51.032;6.998;2023-07-20T11:29:55;64.75;50.21;70.50;;
49568;Laerm;35474;51.032;6.998;2023-07-20T11:32:23;65.49;53.01;82.72;;
49568;Laerm;35474;51.032;6.998;2023-07-20T11:34:50;66.81;48.00;97.22;;
49568;Laerm;35474;51.032;6.998;2023-07-20T11:37:17;64.57;51.44;77.08;;
49568;Laerm;35474;51.032;6.998;2023-07-20T11:39:45;65.42;47.67;81.87;;
49568;Laerm;35474;51.032;6.998;2023-07-20T11:42:11;64.26;43.54;78.43;;
49568;Laerm;35474;51.032;6.998;2023-07-20T11:44:39;63.40;47.67;73.31;;
49568;Laerm;35474;51.032;6.998;2023-07-20T11:47:08;64.98;43.34;76.55;;
49568;Laerm;35474;51.032;6.998;2023-07-20T11:49:36;64.43;46.07;74.65;;
49568;Laerm;35474;51.032;6.998;2023-07-20T11:52:08;66.10;51.06;85.19;;
49568;Laerm;35474;51.032;6.998;2023-07-20T11:54:37;63.32;47.30;73.71;;
49568;Laerm;35474;51.032;6.998;2023-07-20T11:57:05;65.15;53.31;84.67;;
49568;Laerm;35474;51.032;6.998;2023-07-20T11:59:32;69.90;51.59;91.05;;
49568;Laerm;35474;51.032;6.998;2023-07-20T12:02:03;65.97;50.83;79.88;;
49568;Laerm;35474;51.032;6.998;2023-07-20T12:04:33;61.78;43.14;76.30;;
49568;Laerm;35474;51.032;6.998;2023-07-20T12:07:00;63.20;46.57;80.18;;
49568;Laerm;35474;51.032;6.998;2023-07-20T12:09:27;63.59;50.12;72.32;;
49568;Laerm;35474;51.032;6.998;2023-07-20T12:12:14;64.55;52.31;76.49;;
49568;Laerm;35474;51.032;6.998;2023-07-20T12:14:40;67.10;54.02;84.48;;
49568;Laerm;35474;51.032;6.998;2023-07-20T12:17:08;64.28;51.36;70.31;;
49568;Laerm;35474;51.032;6.998;2023-07-20T12:19:38;63.36;43.09;76.22;;
49568;Laerm;35474;51.032;6.998;2023-07-20T12:22:05;65.08;52.02;73.40;;
49568;Laerm;35474;51.032;6.998;2023-07-20T12:24:32;66.68;56.85;74.12;;
49568;Laerm;35474;51.032;6.998;2023-07-20T12:26:59;64.62;47.86;73.40;;
49568;Laerm;35474;51.032;6.998;2023-07-20T12:29:25;63.39;49.39;79.16;;
49568;Laerm;35474;51.032;6.998;2023-07-20T12:31:52;66.14;50.42;82.72;;
49568;Laerm;35474;51.032;6.998;2023-07-20T12:34:19;67.14;50.96;83.53;;
49568;Laerm;35474;51.032;6.998;2023-07-20T12:36:46;66.46;54.12;78.34;;
49568;Laerm;35474;51.032;6.998;2023-07-20T12:39:12;64.73;48.78;77.03;;
49568;Laerm;35474;51.032;6.998;2023-07-20T12:41:39;64.77;48.16;76.56;;
49568;Laerm;35474;51.032;6.998;2023-07-20T12:44:06;66.63;44.27;85.97;;
49568;Laerm;35474;51.032;6.998;2023-07-20T12:46:32;66.82;47.84;84.91;;
49568;Laerm;35474;51.032;6.998;2023-07-20T12:49:01;67.76;48.31;87.16;;
49568;Laerm;35474;51.032;6.998;2023-07-20T12:51:28;66.37;48.84;83.37;;
49568;Laerm;35474;51.032;6.998;2023-07-20T12:53:55;63.19;47.96;70.95;;
49568;Laerm;35474;51.032;6.998;2023-07-20T12:56:22;63.59;48.88;71.02;;
49568;Laerm;35474;51.032;6.998;2023-07-20T12:58:51;69.80;51.21;89.76;;
49568;Laerm;35474;51.032;6.998;2023-07-20T13:01:18;67.86;47.18;88.34;;
49568;Laerm;35474;51.032;6.998;2023-07-20T13:03:44;63.62;47.28;77.93;;
49568;Laerm;35474;51.032;6.998;2023-07-20T13:06:14;64.90;52.84;71.53;;
49568;Laerm;35474;51.032;6.998;2023-07-20T13:08:44;66.28;53.06;80.09;;
49568;Laerm;35474;51.032;6.998;2023-07-20T13:11:10;66.54;47.84;81.44;;
49568;Laerm;35474;51.032;6.998;2023-07-20T13:13:37;64.61;53.26;71.10;;
49568;Laerm;35474;51.032;6.998;2023-07-20T13:16:04;63.37;45.97;69.13;;
49568;Laerm;35474;51.032;6.998;2023-07-20T13:18:31;64.87;44.54;72.65;;
49568;Laerm;35474;51.032;6.998;2023-07-20T13:20:57;65.41;50.63;72.12;;
49568;Laerm;35474;51.032;6.998;2023-07-20T13:23:24;63.97;44.31;70.09;;
49568;Laerm;35474;51.032;6.998;2023-07-20T13:25:50;65.00;48.25;83.90;;
49568;Laerm;35474;51.032;6.998;2023-07-20T13:28:17;64.57;48.74;80.91;;
49568;Laerm;35474;51.032;6.998;2023-07-20T13:30:43;63.10;46.69;71.32;;
49568;Laerm;35474;51.032;6.998;2023-07-20T13:33:12;64.53;43.14;73.58;;
49568;Laerm;35474;51.032;6.998;2023-07-20T13:35:43;65.55;51.59;76.39;;
49568;Laerm;35474;51.032;6.998;2023-07-20T13:38:13;65.77;53.24;77.10;;
49568;Laerm;35474;51.032;6.998;2023-07-20T13:40:40;64.63;50.74;79.48;;
49568;Laerm;35474;51.032;6.998;2023-07-20T13:43:06;66.42;47.83;84.03;;
49568;Laerm;35474;51.032;6.998;2023-07-20T13:45:33;66.94;56.00;85.64;;
49568;Laerm;35474;51.032;6.998;2023-07-20T13:48:00;64.55;54.42;74.96;;
49568;Laerm;35474;51.032;6.998;2023-07-20T13:50:29;65.69;51.80;76.01;;
49568;Laerm;35474;51.032;6.998;2023-07-20T13:53:08;65.01;47.00;71.97;;
49568;Laerm;35474;51.032;6.998;2023-07-20T13:55:37;64.38;45.23;79.84;;
49568;Laerm;35474;51.032;6.998;2023-07-20T13:58:07;63.69;45.42;69.50;;
49568;Laerm;35474;51.032;6.998;2023-07-20T14:00:39;64.71;48.21;80.27;;
49568;Laerm;35474;51.032;6.998;2023-07-20T14:03:05;64.62;45.63;74.15;;
49568;Laerm;35474;51.032;6.998;2023-07-20T14:05:35;63.74;47.36;74.01;;
49568;Laerm;35474;51.032;6.998;2023-07-20T14:08:04;63.66;45.51;76.14;;